Terminal Aerodrome Forecast
Issued by NWS Cleveland, OH

Home | Current Version | Previous Version | Graphics & Text | Print | Product List | Glossary Off
Versions: 1 2 3 4 5 6 7 8 9 10 11 12 13 14 15 16 17 18 19

000
FTUS41 KCLE 011700
TAFTOL
TAF
KTOL 011725Z 0118/0218 24008KT P6SM SKC
     FM021200 18007KT P6SM OVC100
     FM021500 21015G25KT P6SM OVC050
     FM021700 21015G25KT P6SM -SHRA OVC025=

USA.gov is the U.S. government's official web portal to all federal, state and local government web resources and services.